Time;durP1;ratioP1;P1;durP2;ratioP2;P2;SDS_P1;SDS_P2;PMS_P1;PMS_P2;Temp;Humidity;BMP_temperature;BMP_pressure;BME280_temperature;BME280_humidity;BME280_pressure;Samples;Min_cycle;Max_cycle;Signal;HPM_P1;HPM_P2
2022/06/01 00:01:12;;;;;;;12.02;9.35;;;10.20;99.90;;;;;;5073245;28;20107;-79
2022/06/01 00:03:41;;;;;;;14.63;10.32;;;10.20;99.90;;;;;;5072982;28;20082;-78
2022/06/01 00:06:07;;;;;;;17.17;11.48;;;10.20;99.90;;;;;;5073805;28;20016;-79
2022/06/01 00:09:02;;;;;;;13.40;10.80;;;10.20;99.90;;;;;;5073544;28;20035;-79
2022/06/01 00:11:37;;;;;;;14.38;10.48;;;10.20;99.90;;;;;;5062737;28;20040;-79
2022/06/01 00:14:04;;;;;;;12.23;10.05;;;10.20;99.90;;;;;;5073264;28;20093;-78
2022/06/01 00:16:33;;;;;;;14.10;10.15;;;10.00;99.90;;;;;;5073156;28;20032;-78
2022/06/01 00:19:02;;;;;;;14.55;10.70;;;10.00;99.90;;;;;;5073126;28;20021;-78
2022/06/01 00:21:30;;;;;;;13.35;11.18;;;10.00;99.90;;;;;;5072796;28;20500;-78
2022/06/01 00:23:56;;;;;;;14.85;10.80;;;9.90;99.90;;;;;;5056476;28;20032;-78
2022/06/01 00:26:25;;;;;;;15.45;11.70;;;9.90;99.90;;;;;;5056727;28;20082;-78
2022/06/01 00:28:50;;;;;;;13.15;9.90;;;9.80;99.90;;;;;;5074305;28;20024;-78
2022/06/01 00:31:19;;;;;;;18.25;10.70;;;9.80;99.90;;;;;;5072392;28;20636;-78
2022/06/01 00:33:45;;;;;;;20.65;12.68;;;9.70;99.90;;;;;;5073542;28;20119;-79
2022/06/01 00:36:25;;;;;;;17.65;12.60;;;9.70;99.90;;;;;;5073178;28;20052;-79
2022/06/01 00:38:53;;;;;;;16.83;13.80;;;9.70;99.90;;;;;;5073635;28;20025;-79
2022/06/01 00:41:21;;;;;;;18.25;13.23;;;9.60;99.90;;;;;;5072765;28;20126;-79
2022/06/01 00:44:02;;;;;;;16.65;11.30;;;9.70;99.90;;;;;;5073279;28;20024;-80
2022/06/01 00:46:31;;;;;;;13.15;10.10;;;9.60;99.90;;;;;;5072859;28;20021;-80
2022/06/01 00:49:33;;;;;;;16.85;12.18;;;9.50;99.90;;;;;;5072840;28;20025;-79
2022/06/01 00:54:52;;;;;;;17.23;13.20;;;9.50;99.90;;;;;;5053856;28;20037;-78
2022/06/01 00:57:18;;;;;;;17.67;13.05;;;9.50;99.90;;;;;;5073415;28;20028;-79
2022/06/01 00:59:45;;;;;;;16.00;11.30;;;9.50;99.90;;;;;;5071702;28;20070;-79
2022/06/01 01:02:18;;;;;;;17.52;12.48;;;9.40;99.90;;;;;;5073373;28;20025;-79
2022/06/01 01:04:44;;;;;;;14.25;11.15;;;9.40;99.90;;;;;;5071689;28;20054;-78
2022/06/01 01:07:12;;;;;;;13.75;10.85;;;9.30;99.90;;;;;;5071906;28;20021;-78
2022/06/01 01:09:38;;;;;;;15.90;11.48;;;9.30;99.90;;;;;;5071264;28;20127;-77
2022/06/01 01:12:07;;;;;;;16.95;11.40;;;9.20;99.90;;;;;;5071404;28;20175;-77
2022/06/01 01:14:38;;;;;;;17.33;12.10;;;9.20;99.90;;;;;;5070887;28;20123;-77
2022/06/01 01:17:05;;;;;;;14.45;10.98;;;9.20;99.90;;;;;;5071362;28;20024;-78
2022/06/01 01:19:39;;;;;;;14.65;10.85;;;9.30;99.90;;;;;;5070793;28;20069;-77
2022/06/01 01:22:25;;;;;;;14.13;10.45;;;9.30;99.90;;;;;;5071325;28;20408;-77
2022/06/01 01:25:17;;;;;;;13.25;10.27;;;9.30;99.90;;;;;;5072553;28;20016;-77
2022/06/01 01:27:45;;;;;;;16.58;12.10;;;9.20;99.90;;;;;;5071715;28;20023;-77
2022/06/01 01:30:39;;;;;;;14.90;10.77;;;9.20;99.90;;;;;;5072292;28;20020;-76
2022/06/01 01:33:07;;;;;;;12.45;9.38;;;9.10;99.90;;;;;;5071444;28;20111;-78
2022/06/01 01:35:33;;;;;;;17.40;10.98;;;9.10;99.90;;;;;;5071395;28;20024;-78
2022/06/01 01:38:03;;;;;;;14.98;10.95;;;9.10;99.90;;;;;;5071618;28;20031;-78
2022/06/01 01:40:28;;;;;;;13.32;10.05;;;9.00;99.90;;;;;;5071154;28;20024;-78
2022/06/01 01:42:57;;;;;;;13.90;10.30;;;9.00;99.90;;;;;;5072222;28;20086;-86
2022/06/01 01:45:27;;;;;;;13.38;10.02;;;9.00;99.90;;;;;;5073018;28;20021;-87
2022/06/01 01:47:53;;;;;;;15.02;11.57;;;9.00;99.90;;;;;;5072624;28;20115;-87
2022/06/01 01:50:19;;;;;;;15.95;10.05;;;9.00;99.90;;;;;;5073641;28;20085;-87
2022/06/01 01:52:46;;;;;;;14.38;10.63;;;9.00;99.90;;;;;;5072903;28;20024;-86
2022/06/01 01:55:30;;;;;;;12.10;9.15;;;9.00;99.90;;;;;;5079315;28;20107;-86
2022/06/01 01:58:07;;;;;;;14.35;9.80;;;9.00;99.90;;;;;;5082639;28;20040;-86
2022/06/01 02:00:39;;;;;;;11.25;9.10;;;9.00;99.90;;;;;;5081355;28;20028;-87
2022/06/01 02:03:05;;;;;;;14.50;9.65;;;8.90;99.90;;;;;;5083030;28;20020;-87
2022/06/01 02:06:06;;;;;;;22.25;11.38;;;8.90;99.90;;;;;;5084255;28;20073;-86
2022/06/01 02:09:06;;;;;;;13.38;10.55;;;8.90;99.90;;;;;;5031029;28;20052;-87
2022/06/01 02:14:45;;;;;;;;;;;8.80;99.90;;;;;;5083734;28;20158;-86
2022/06/01 02:18:10;;;;;;;15.77;10.48;;;8.80;99.90;;;;;;5084506;28;19904;-86
2022/06/01 02:20:41;;;;;;;14.15;10.65;;;8.80;99.90;;;;;;5045234;28;20303;-86
2022/06/01 02:23:11;;;;;;;;;;;8.80;99.90;;;;;;5079350;28;20032;-86
2022/06/01 02:25:37;;;;;;;15.95;11.25;;;8.80;99.90;;;;;;5086480;28;20319;-86
2022/06/01 02:28:03;;;;;;;14.90;9.95;;;8.70;99.90;;;;;;5085913;28;20074;-86
2022/06/01 02:30:38;;;;;;;12.48;9.60;;;8.70;99.90;;;;;;5085936;28;20050;-86
2022/06/01 02:33:17;;;;;;;13.40;9.50;;;8.70;99.90;;;;;;5085328;28;20227;-86
2022/06/01 02:35:49;;;;;;;20.50;11.45;;;8.70;99.90;;;;;;5068861;28;20024;-86
2022/06/01 02:38:24;;;;;;;16.50;11.82;;;8.70;99.90;;;;;;5086374;28;20103;-87
2022/06/01 02:40:50;;;;;;;19.27;11.77;;;8.80;99.90;;;;;;5084471;28;20088;-86
2022/06/01 02:43:20;;;;;;;18.60;12.13;;;8.80;99.90;;;;;;5068282;28;20024;-86
2022/06/01 02:45:49;;;;;;;16.10;11.75;;;8.80;99.90;;;;;;5086445;28;20070;-85
2022/06/01 02:48:18;;;;;;;16.40;11.48;;;8.80;99.90;;;;;;5084024;28;20021;-85
2022/06/01 02:50:44;;;;;;;14.70;10.82;;;8.80;99.90;;;;;;5085047;28;20044;-84
2022/06/01 02:53:12;;;;;;;16.50;12.07;;;8.80;99.90;;;;;;5067472;28;20029;-83
2022/06/01 02:55:38;;;;;;;16.45;11.93;;;8.90;99.90;;;;;;5075358;28;20024;-83
2022/06/01 02:58:04;;;;;;;15.10;11.40;;;8.90;99.90;;;;;;5076447;28;20032;-83
2022/06/01 03:00:34;;;;;;;16.83;11.48;;;8.90;99.90;;;;;;5076677;28;20035;-88
2022/06/01 03:03:01;;;;;;;16.05;10.88;;;8.90;99.90;;;;;;5076295;28;20020;-88
2022/06/01 03:05:30;;;;;;;14.77;9.93;;;9.00;99.90;;;;;;5075893;28;20029;-88
2022/06/01 03:07:56;;;;;;;14.50;10.63;;;9.00;99.90;;;;;;5077003;28;20044;-86
2022/06/01 03:10:23;;;;;;;11.85;10.15;;;9.00;99.90;;;;;;5074321;28;20074;-84
2022/06/01 03:12:48;;;;;;;11.98;9.30;;;9.00;99.90;;;;;;5075646;28;20029;-82
2022/06/01 03:15:16;;;;;;;14.18;10.27;;;9.00;99.90;;;;;;5074784;28;20102;-85
2022/06/01 03:17:43;;;;;;;15.98;10.73;;;9.00;99.90;;;;;;5075810;28;20496;-85
2022/06/01 03:20:11;;;;;;;12.35;9.23;;;9.10;99.90;;;;;;5074242;28;20035;-85
2022/06/01 03:22:38;;;;;;;12.48;8.90;;;9.20;99.90;;;;;;5075976;28;20016;-85
2022/06/01 03:25:07;;;;;;;12.68;8.13;;;9.30;99.90;;;;;;5074665;28;20024;-85
2022/06/01 03:27:33;;;;;;;13.48;8.20;;;9.50;99.90;;;;;;5075515;28;20035;-85
2022/06/01 03:29:58;;;;;;;15.35;8.68;;;9.60;99.90;;;;;;5074325;28;20032;-86
2022/06/01 03:32:24;;;;;;;8.05;7.03;;;9.60;99.90;;;;;;5075830;28;20056;-86
2022/06/01 03:34:49;;;;;;;11.15;7.30;;;9.70;99.90;;;;;;5074276;28;20025;-85
2022/06/01 03:37:15;;;;;;;9.18;6.88;;;9.80;99.90;;;;;;5075757;28;20107;-85
2022/06/01 03:39:40;;;;;;;9.07;7.60;;;9.90;99.90;;;;;;5073896;28;20035;-85
2022/06/01 03:42:06;;;;;;;10.82;7.40;;;10.00;99.90;;;;;;5074020;28;20062;-85
2022/06/01 03:47:16;;;;;;;9.93;6.70;;;10.10;99.90;;;;;;5075664;28;20428;-85
2022/06/01 03:49:43;;;;;;;7.75;6.82;;;10.10;99.90;;;;;;5075240;28;20028;-85
2022/06/01 03:52:09;;;;;;;9.10;6.65;;;10.20;99.90;;;;;;5075385;28;20521;-85
2022/06/01 03:54:36;;;;;;;9.40;6.55;;;10.20;99.90;;;;;;5079024;28;20025;-85
2022/06/01 03:57:02;;;;;;;9.35;6.25;;;10.30;99.90;;;;;;5085793;28;20071;-86
2022/06/01 03:59:29;;;;;;;7.00;6.30;;;10.30;99.90;;;;;;5086399;28;20436;-85
2022/06/01 04:01:54;;;;;;;9.23;5.85;;;10.40;99.90;;;;;;5086042;28;20048;-85
2022/06/01 04:04:23;;;;;;;9.18;6.53;;;10.40;99.90;;;;;;5085026;28;20044;-84
2022/06/01 04:06:49;;;;;;;6.75;5.68;;;10.40;99.90;;;;;;5085997;28;20081;-82
2022/06/01 04:09:17;;;;;;;13.10;6.60;;;10.50;99.90;;;;;;5082016;28;20025;-82
2022/06/01 04:11:46;;;;;;;7.78;6.57;;;10.50;99.90;;;;;;5084403;28;20048;-86
2022/06/01 04:14:11;;;;;;;9.40;6.95;;;10.50;99.90;;;;;;5085892;28;20084;-85
2022/06/01 04:16:38;;;;;;;8.75;6.80;;;10.60;99.90;;;;;;5084434;28;20023;-85
2022/06/01 04:19:04;;;;;;;10.25;6.57;;;10.50;99.90;;;;;;5084407;28;20379;-85
2022/06/01 04:21:37;;;;;;;14.32;7.65;;;10.60;99.90;;;;;;5084874;28;20029;-86
2022/06/01 04:24:05;;;;;;;11.10;7.80;;;10.60;99.90;;;;;;5086373;28;20050;-86
2022/06/01 04:26:32;;;;;;;12.63;7.65;;;10.60;99.90;;;;;;5085410;28;20017;-85
2022/06/01 04:28:57;;;;;;;12.00;7.85;;;10.60;99.90;;;;;;5084847;28;20107;-84
2022/06/01 04:31:24;;;;;;;13.55;8.10;;;10.60;99.90;;;;;;5084690;28;20040;-85
2022/06/01 04:33:51;;;;;;;11.32;8.73;;;10.60;99.90;;;;;;5083788;28;20119;-85
2022/06/01 04:36:17;;;;;;;11.73;8.15;;;10.70;99.90;;;;;;5085321;28;20046;-85
2022/06/01 04:38:43;;;;;;;11.32;8.38;;;10.70;99.90;;;;;;5083268;28;20088;-83
2022/06/01 04:41:09;;;;;;;11.45;8.07;;;10.80;99.90;;;;;;5081231;28;20413;-84
2022/06/01 04:43:35;;;;;;;11.02;7.32;;;10.80;99.90;;;;;;5082644;28;20056;-83
2022/06/01 04:46:00;;;;;;;11.23;7.53;;;10.90;99.90;;;;;;5084522;28;20043;-83
2022/06/01 04:48:27;;;;;;;14.57;7.72;;;10.90;99.90;;;;;;5083367;28;20017;-85
2022/06/01 04:50:55;;;;;;;10.95;7.53;;;10.90;99.90;;;;;;5082406;28;20025;-85
2022/06/01 04:53:20;;;;;;;10.15;7.97;;;11.00;99.90;;;;;;5083075;28;20063;-84
2022/06/01 04:55:47;;;;;;;11.10;7.82;;;11.00;99.90;;;;;;5075133;28;20028;-85
2022/06/01 04:58:13;;;;;;;12.82;7.63;;;11.00;99.90;;;;;;5073758;28;20028;-85
2022/06/01 05:00:40;;;;;;;12.10;8.45;;;11.10;99.90;;;;;;5072575;28;20036;-85
2022/06/01 05:03:06;;;;;;;13.38;8.23;;;11.10;99.90;;;;;;5073799;28;20025;-85
2022/06/01 05:05:36;;;;;;;15.00;9.07;;;11.20;99.90;;;;;;5057463;28;20090;-84
2022/06/01 05:08:01;;;;;;;16.65;9.20;;;11.20;99.90;;;;;;5071007;28;20082;-83
2022/06/01 05:10:28;;;;;;;11.15;9.07;;;11.20;99.90;;;;;;5065804;28;20032;-83
2022/06/01 05:12:53;;;;;;;12.55;8.15;;;11.30;99.90;;;;;;5033954;28;1023090;-83
2022/06/01 05:15:19;;;;;;;12.25;8.02;;;11.40;99.90;;;;;;5062806;28;20036;-85
2022/06/01 05:17:44;;;;;;;12.60;8.35;;;11.50;99.90;;;;;;5065203;28;20111;-85
2022/06/01 05:20:11;;;;;;;10.63;8.30;;;11.50;99.90;;;;;;5073824;28;20060;-85
2022/06/01 05:22:37;;;;;;;11.13;7.63;;;11.50;99.90;;;;;;5073491;28;20070;-85
2022/06/01 05:25:03;;;;;;;12.45;7.53;;;11.60;99.90;;;;;;5074366;28;20465;-85
2022/06/01 05:27:28;;;;;;;10.27;8.65;;;11.60;99.90;;;;;;5072538;28;20021;-85
2022/06/01 05:29:54;;;;;;;10.25;8.45;;;11.60;99.90;;;;;;5072664;28;20032;-85
2022/06/01 05:32:20;;;;;;;11.25;8.65;;;11.60;99.90;;;;;;5072303;28;20039;-86
2022/06/01 05:34:46;;;;;;;10.15;8.25;;;11.60;99.90;;;;;;5073550;28;20028;-86
2022/06/01 05:37:11;;;;;;;13.27;8.82;;;11.60;99.90;;;;;;5072448;28;20123;-87
2022/06/01 05:39:37;;;;;;;9.50;7.55;;;11.70;99.90;;;;;;5073284;28;20025;-87
2022/06/01 05:42:03;;;;;;;13.55;8.90;;;11.70;99.90;;;;;;5073638;28;20386;-86
2022/06/01 05:44:28;;;;;;;14.50;10.02;;;11.60;99.90;;;;;;5072416;28;20642;-87
2022/06/01 05:46:59;;;;;;;12.27;9.75;;;11.60;99.90;;;;;;5073394;28;20739;-87
2022/06/01 05:49:24;;;;;;;;;;;11.60;99.90;;;;;;5074572;28;20033;-86
2022/06/01 05:51:50;;;;;;;15.10;9.98;;;11.60;99.90;;;;;;5073260;28;19940;-87
2022/06/01 05:54:16;;;;;;;11.32;9.68;;;11.50;99.90;;;;;;5075680;28;20020;-87
2022/06/01 05:56:42;;;;;;;14.18;9.68;;;11.60;99.90;;;;;;5085437;28;20029;-86
2022/06/01 05:59:08;;;;;;;12.15;9.20;;;11.60;99.90;;;;;;5084353;28;20032;-87
2022/06/01 06:01:33;;;;;;;19.27;10.20;;;11.60;99.90;;;;;;5084648;28;20025;-87
2022/06/01 06:03:59;;;;;;;13.75;9.85;;;11.60;99.90;;;;;;5084104;28;20024;-86
2022/06/01 06:06:26;;;;;;;16.45;10.77;;;11.70;99.90;;;;;;5083093;28;20063;-86
2022/06/01 06:09:04;;;;;;;13.45;9.50;;;11.80;99.90;;;;;;5083572;28;20508;-86
2022/06/01 06:11:35;;;;;;;11.18;8.77;;;11.90;99.90;;;;;;5083538;28;20056;-86
2022/06/01 06:14:01;;;;;;;11.98;8.90;;;12.00;99.90;;;;;;5083431;28;20072;-87
2022/06/01 06:16:31;;;;;;;11.13;9.02;;;12.10;99.90;;;;;;5084030;28;20024;-87
2022/06/01 06:18:57;;;;;;;14.63;9.33;;;12.20;99.90;;;;;;5070131;28;20033;-86
2022/06/01 06:21:28;;;;;;;12.77;9.55;;;12.20;99.90;;;;;;5083197;28;20297;-87
2022/06/01 06:24:02;;;;;;;11.68;10.13;;;12.30;99.90;;;;;;5084126;28;20025;-86
2022/06/01 06:26:33;;;;;;;12.57;9.73;;;12.40;99.90;;;;;;5083019;28;20032;-86
2022/06/01 06:29:01;;;;;;;15.07;10.38;;;12.50;99.90;;;;;;5084368;28;20119;-87
2022/06/01 06:31:27;;;;;;;13.30;9.85;;;12.60;99.90;;;;;;5085229;28;20032;-86
2022/06/01 06:33:53;;;;;;;11.85;9.23;;;12.70;99.90;;;;;;5085142;28;20024;-87
2022/06/01 06:36:19;;;;;;;12.25;9.57;;;12.80;99.90;;;;;;5084271;28;20574;-86
2022/06/01 06:38:50;;;;;;;11.38;8.60;;;13.00;99.90;;;;;;5080504;28;20042;-78
2022/06/01 06:41:15;;;;;;;14.20;9.20;;;13.20;99.90;;;;;;5071976;28;20631;-78
2022/06/01 06:43:42;;;;;;;14.18;8.68;;;13.40;99.90;;;;;;5074067;28;20035;-78
2022/06/01 06:46:23;;;;;;;10.90;8.45;;;13.60;99.90;;;;;;5072487;28;20496;-78
2022/06/01 06:48:49;;;;;;;13.38;8.55;;;13.90;99.90;;;;;;5077323;28;20115;-80
2022/06/01 06:51:19;;;;;;;10.65;8.48;;;14.20;99.90;;;;;;5071929;28;20027;-78
2022/06/01 06:53:45;;;;;;;11.15;8.18;;;14.30;99.90;;;;;;5071867;28;20020;-78
2022/06/01 06:56:13;;;;;;;10.23;8.00;;;14.30;99.90;;;;;;5072766;28;20028;-78
2022/06/01 06:58:40;;;;;;;9.75;7.97;;;14.20;99.90;;;;;;5052851;28;20064;-79
2022/06/01 07:01:06;;;;;;;9.10;7.35;;;14.10;99.90;;;;;;5067244;28;20031;-78
2022/06/01 07:03:35;;;;;;;12.77;8.70;;;13.90;99.90;;;;;;5074290;28;20025;-79
2022/06/01 07:06:09;;;;;;;9.23;8.23;;;14.00;99.90;;;;;;5076260;28;20370;-79
2022/06/01 07:08:42;;;;;;;12.18;8.35;;;14.10;99.90;;;;;;5073459;28;20021;-79
2022/06/01 07:11:09;;;;;;;9.18;8.15;;;14.20;99.90;;;;;;5055866;28;20381;-79
2022/06/01 07:13:37;;;;;;;11.60;7.97;;;14.40;99.90;;;;;;5074822;28;20029;-79
2022/06/01 07:16:28;;;;;;;11.02;7.93;;;14.50;99.90;;;;;;5073769;28;20504;-79
2022/06/01 07:18:59;;;;;;;11.45;7.85;;;14.60;99.90;;;;;;5074275;28;20032;-81
2022/06/01 07:21:25;;;;;;;10.23;7.65;;;14.70;99.90;;;;;;5075350;28;20147;-79
2022/06/01 07:23:51;;;;;;;8.82;7.13;;;14.60;99.90;;;;;;5074165;28;20024;-78
2022/06/01 07:26:28;;;;;;;9.90;7.68;;;14.70;99.90;;;;;;5067847;28;20024;-79
2022/06/01 07:28:59;;;;;;;12.45;8.10;;;14.80;99.90;;;;;;5054580;28;20105;-79
2022/06/01 07:31:25;;;;;;;12.18;8.45;;;14.70;99.90;;;;;;5055240;28;20643;-79
2022/06/01 07:33:54;;;;;;;11.55;8.73;;;14.70;99.90;;;;;;5073281;28;20119;-79
2022/06/01 07:36:20;;;;;;;10.63;7.93;;;14.80;99.90;;;;;;5062199;28;20021;-78
2022/06/01 07:44:22;;;;;;;13.13;8.38;;;15.20;99.90;;;;;;5079590;28;20047;-86
2022/06/01 07:46:48;;;;;;;13.27;8.38;;;15.10;99.90;;;;;;5086234;28;20047;-87
2022/06/01 07:49:14;;;;;;;12.45;7.53;;;15.10;99.90;;;;;;5085768;28;20025;-87
2022/06/01 07:51:40;;;;;;;12.88;8.63;;;15.30;99.90;;;;;;5086472;28;20033;-87
2022/06/01 07:54:07;;;;;;;14.02;8.38;;;15.40;99.90;;;;;;5086344;28;20032;-87
2022/06/01 07:56:34;;;;;;;12.90;8.93;;;15.40;99.90;;;;;;5083595;28;20028;-87
2022/06/01 07:59:00;;;;;;;11.77;9.32;;;15.50;99.90;;;;;;5066712;28;20474;-87
2022/06/01 08:01:31;;;;;;;12.00;8.30;;;15.80;99.90;;;;;;5075422;28;20036;-79
2022/06/01 08:03:59;;;;;;;10.63;8.25;;;15.90;99.90;;;;;;5073435;28;20051;-79
2022/06/01 08:06:27;;;;;;;10.13;8.55;;;16.00;99.90;;;;;;5073575;28;20021;-79
2022/06/01 08:08:53;;;;;;;10.98;8.13;;;16.10;99.90;;;;;;5069713;28;20055;-79
2022/06/01 08:11:19;;;;;;;10.18;7.22;;;16.40;99.90;;;;;;5070472;28;20078;-79
2022/06/01 08:13:45;;;;;;;10.10;7.07;;;16.90;99.90;;;;;;5065539;28;20480;-79
2022/06/01 08:16:11;;;;;;;9.13;6.68;;;17.90;99.90;;;;;;5062969;28;20130;-79
2022/06/01 08:18:37;;;;;;;10.82;7.07;;;18.80;99.90;;;;;;5071226;28;20024;-79
2022/06/01 08:21:05;;;;;;;8.57;6.05;;;19.90;97.70;;;;;;5068816;28;20047;-80
2022/06/01 08:23:33;;;;;;;7.28;6.57;;;20.80;93.40;;;;;;5069460;28;20024;-80
2022/06/01 08:25:59;;;;;;;6.03;4.63;;;22.20;88.00;;;;;;5064880;28;20437;-80
2022/06/01 08:28:26;;;;;;;7.18;6.45;;;22.90;87.20;;;;;;5050120;28;20446;-79
2022/06/01 08:30:54;;;;;;;9.18;7.60;;;23.40;81.20;;;;;;5048949;28;20024;-80
2022/06/01 08:33:23;;;;;;;9.35;6.95;;;23.60;75.40;;;;;;5060326;28;20185;-80
2022/06/01 08:35:52;;;;;;;6.55;5.13;;;23.20;74.30;;;;;;5070947;28;20024;-79
2022/06/01 08:38:18;;;;;;;6.25;5.65;;;24.10;73.70;;;;;;5068823;28;20036;-80
2022/06/01 08:40:52;;;;;;;5.47;4.78;;;24.20;72.60;;;;;;5069236;28;20478;-79
2022/06/01 08:43:24;;;;;;;5.95;4.60;;;24.20;71.90;;;;;;5068888;28;20024;-80
2022/06/01 08:45:56;;;;;;;6.57;4.88;;;25.00;70.30;;;;;;5068771;28;20017;-79
2022/06/01 08:48:32;;;;;;;6.55;4.95;;;25.80;66.10;;;;;;5070829;28;20047;-79
2022/06/01 08:50:58;;;;;;;4.65;4.22;;;26.10;66.00;;;;;;5070304;28;20059;-79
2022/06/01 08:53:27;;;;;;;5.15;3.70;;;26.90;64.60;;;;;;5069223;28;20401;-78
2022/06/01 08:56:09;;;;;;;4.90;4.32;;;27.30;62.60;;;;;;5066487;28;20381;-79
2022/06/01 08:58:49;;;;;;;6.00;4.80;;;27.40;58.50;;;;;;5070735;28;20449;-82
2022/06/01 09:01:29;;;;;;;5.32;4.78;;;27.30;59.30;;;;;;5095632;28;20036;-86
2022/06/01 09:04:12;;;;;;;6.35;5.75;;;27.30;57.70;;;;;;5094798;28;20039;-87
2022/06/01 09:06:48;;;;;;;4.75;4.18;;;27.30;61.10;;;;;;5095484;28;20024;-88
2022/06/01 09:09:26;;;;;;;6.22;5.13;;;26.60;58.10;;;;;;5095587;28;20013;-87
2022/06/01 09:11:53;;;;;;;7.63;6.63;;;25.70;60.00;;;;;;5094348;28;20013;-86
2022/06/01 09:14:31;;;;;;;8.63;5.70;;;25.40;58.80;;;;;;5076510;28;20059;-87
2022/06/01 09:16:59;;;;;;;5.85;4.97;;;25.10;57.80;;;;;;5095346;28;20099;-86
2022/06/01 09:22:37;;;;;;;8.85;5.93;;;25.40;57.50;;;;;;5096162;28;20009;-87
2022/06/01 09:22:38;;;;;;;5.22;4.45;;;25.80;57.40;;;;;;5096828;28;20025;-87
2022/06/01 09:25:08;;;;;;;5.15;4.63;;;25.60;59.20;;;;;;5076115;28;20029;-86
2022/06/01 09:27:44;;;;;;;4.78;4.38;;;26.30;57.40;;;;;;5074252;28;20036;-87
2022/06/01 09:30:46;;;;;;;5.03;4.03;;;26.70;59.90;;;;;;5076926;28;20098;-87
2022/06/01 09:33:25;;;;;;;4.60;4.18;;;26.90;56.10;;;;;;5077797;28;20012;-87
2022/06/01 09:36:02;;;;;;;4.93;3.97;;;25.70;58.80;;;;;;5075556;28;20051;-87
2022/06/01 09:38:40;;;;;;;5.88;5.03;;;25.50;59.70;;;;;;5075406;28;20020;-87
2022/06/01 09:41:12;;;;;;;8.45;5.90;;;25.00;61.10;;;;;;5074550;28;20017;-87
2022/06/01 09:43:40;;;;;;;9.80;6.35;;;25.20;56.80;;;;;;5084845;28;20039;-87
2022/06/01 09:46:06;;;;;;;7.85;4.40;;;25.90;57.10;;;;;;5075451;28;20032;-87
2022/06/01 09:48:36;;;;;;;9.32;5.05;;;26.40;57.60;;;;;;5075346;28;20041;-86
2022/06/01 09:51:11;;;;;;;4.93;4.35;;;27.30;57.00;;;;;;5072409;28;20063;-87
2022/06/01 09:54:07;;;;;;;3.72;3.28;;;27.20;54.70;;;;;;5079291;28;20031;-87
2022/06/01 09:56:45;;;;;;;4.95;3.83;;;26.50;56.10;;;;;;5075568;28;20033;-87
2022/06/01 10:08:26;;;;;;;6.25;3.50;;;27.80;51.20;;;;;;5079728;28;20051;-86
2022/06/01 10:11:03;;;;;;;6.45;4.20;;;27.80;50.80;;;;;;5079111;28;20025;-87
2022/06/01 10:13:36;;;;;;;5.55;4.32;;;27.30;53.10;;;;;;5079937;28;20036;-87
2022/06/01 10:16:54;;;;;;;4.60;3.47;;;26.90;51.50;;;;;;5078902;28;20052;-87
2022/06/01 10:19:28;;;;;;;3.72;3.10;;;27.20;53.10;;;;;;5042826;28;20032;-87
2022/06/01 10:22:10;;;;;;;4.30;3.70;;;26.30;52.10;;;;;;5080324;28;20499;-86
2022/06/01 10:24:44;;;;;;;4.95;3.70;;;25.00;55.00;;;;;;5079856;28;20021;-86
2022/06/01 10:27:22;;;;;;;5.32;3.75;;;24.30;55.30;;;;;;5079222;28;20031;-86
2022/06/01 10:30:11;;;;;;;6.30;4.43;;;22.80;58.50;;;;;;5080076;28;20035;-86
2022/06/01 10:32:54;;;;;;;5.80;4.18;;;22.00;61.70;;;;;;5077953;28;20131;-86
2022/06/01 10:35:40;;;;;;;5.35;4.30;;;21.00;63.00;;;;;;5079349;28;20032;-86
2022/06/01 10:38:20;;;;;;;5.50;3.70;;;20.10;66.30;;;;;;5081194;28;20393;-86
2022/06/01 10:40:49;;;;;;;;;;;19.60;68.00;;;;;;5085631;28;20070;-85
2022/06/01 10:43:24;;;;;;;7.00;4.38;;;19.00;69.80;;;;;;5079950;28;19912;-85
2022/06/01 10:45:52;;;;;;;6.88;4.40;;;18.50;73.00;;;;;;5074849;28;20020;-85
2022/06/01 10:48:38;;;;;;;4.72;3.85;;;18.10;75.20;;;;;;5082399;28;20020;-85
2022/06/01 10:51:18;;;;;;;3.83;2.38;;;17.70;81.10;;;;;;5060918;28;20466;-85
2022/06/01 10:54:31;;;;;;;2.47;1.80;;;17.30;76.60;;;;;;5075540;28;20056;-85
2022/06/01 10:56:57;;;;;;;3.78;1.92;;;16.50;80.30;;;;;;5054962;28;20383;-85
2022/06/01 10:59:25;;;;;;;2.78;1.95;;;16.10;81.20;;;;;;5071111;28;20042;-85
2022/06/01 11:02:22;;;;;;;2.25;1.48;;;16.10;82.10;;;;;;5085184;28;20025;-85
2022/06/01 11:05:13;;;;;;;3.55;1.50;;;15.80;83.50;;;;;;5065421;28;20033;-86
2022/06/01 11:08:00;;;;;;;0.80;0.80;;;16.30;83.30;;;;;;5064901;28;20028;-86
2022/06/01 11:11:03;;;;;;;2.72;2.15;;;18.00;78.30;;;;;;5063897;28;20087;-86
2022/06/01 11:13:45;;;;;;;2.90;1.60;;;19.00;73.80;;;;;;5080382;28;20086;-86
2022/06/01 11:16:25;;;;;;;1.33;1.23;;;20.70;73.40;;;;;;5084696;28;20029;-86
2022/06/01 11:19:08;;;;;;;2.25;2.00;;;22.50;67.10;;;;;;5085210;28;20029;-85
2022/06/01 11:22:02;;;;;;;3.33;1.88;;;23.70;64.10;;;;;;5084935;28;20039;-86
2022/06/01 11:25:26;;;;;;;3.15;2.40;;;23.50;62.90;;;;;;5087639;28;20042;-86
2022/06/01 11:28:34;;;;;;;4.28;2.75;;;23.00;62.00;;;;;;5087472;28;20020;-85
2022/06/01 11:31:11;;;;;;;2.88;2.40;;;23.60;59.40;;;;;;5033237;28;20093;-86
2022/06/01 11:34:04;;;;;;;2.72;2.20;;;24.40;59.70;;;;;;5086639;28;20013;-87
2022/06/01 11:36:54;;;;;;;3.05;2.50;;;25.10;57.60;;;;;;5084540;28;20081;-87
2022/06/01 11:40:00;;;;;;;3.65;2.15;;;25.70;58.90;;;;;;5084714;28;20028;-86
2022/06/01 11:42:37;;;;;;;2.72;1.95;;;25.70;58.60;;;;;;5083653;28;20077;-87
2022/06/01 11:45:11;;;;;;;3.13;1.98;;;26.20;54.50;;;;;;5086641;28;20107;-87
2022/06/01 11:47:58;;;;;;;4.95;2.10;;;26.00;54.80;;;;;;5085694;28;20016;-87
2022/06/01 11:50:43;;;;;;;2.65;1.70;;;26.30;57.00;;;;;;5086097;28;20069;-88
2022/06/01 11:53:13;;;;;;;2.40;1.88;;;26.10;55.70;;;;;;5086009;28;20017;-87
2022/06/01 11:55:38;;;;;;;;;;;25.10;56.10;;;;;;5088256;28;20107;-87
2022/06/01 11:58:18;;;;;;;4.07;2.60;;;24.90;58.80;;;;;;5073200;28;20419;-87
2022/06/01 12:00:58;;;;;;;3.85;1.90;;;24.70;57.40;;;;;;5080787;28;20021;-88
2022/06/01 12:03:39;;;;;;;2.95;2.47;;;24.70;59.70;;;;;;5084024;28;20031;-87
2022/06/01 12:06:15;;;;;;;4.05;1.95;;;24.70;57.90;;;;;;5073801;28;20082;-81
2022/06/01 12:08:56;;;;;;;3.75;2.92;;;24.50;58.10;;;;;;5067345;28;20031;-83
2022/06/01 12:11:40;;;;;;;4.63;2.88;;;23.90;57.40;;;;;;5075624;28;20540;-83
2022/06/01 12:14:33;;;;;;;3.42;2.92;;;22.60;60.00;;;;;;5077579;28;20036;-84
2022/06/01 12:17:22;;;;;;;5.75;2.97;;;21.60;62.80;;;;;;5077869;28;20024;-83
2022/06/01 12:19:50;;;;;;;6.65;4.38;;;20.60;67.30;;;;;;5079189;28;20025;-84
2022/06/01 12:28:47;;;;;;;5.70;3.08;;;20.60;71.40;;;;;;5060690;28;20028;-83
2022/06/01 12:31:24;;;;;;;4.25;3.58;;;20.90;69.80;;;;;;5057313;28;20024;-83
2022/06/01 12:34:14;;;;;;;4.93;3.47;;;21.10;67.20;;;;;;5078175;28;20107;-84
2022/06/01 12:36:52;;;;;;;3.35;2.50;;;21.30;66.40;;;;;;5078473;28;20371;-84
2022/06/01 12:39:39;;;;;;;6.30;2.70;;;21.70;68.80;;;;;;5067864;28;20457;-85
2022/06/01 12:42:11;;;;;;;2.38;1.98;;;21.80;64.60;;;;;;5074667;28;20028;-84
2022/06/01 12:48:50;;;;;;;4.30;2.50;;;22.00;65.90;;;;;;5070918;28;20063;-84
2022/06/01 12:52:05;;;;;;;3.88;2.97;;;22.40;63.60;;;;;;5074014;28;20024;-83
2022/06/01 12:55:04;;;;;;;;;;;;;;;;;;;;;
2022/06/01 12:57:48;;;;;;;3.22;2.70;;;22.70;65.60;;;;;;5070064;28;20108;-84
2022/06/01 13:00:36;;;;;;;3.50;2.50;;;22.70;61.70;;;;;;5080722;28;20025;-85
2022/06/01 13:03:46;;;;;;;;;;;;;;;;;;;;;
2022/06/01 13:07:23;;;;;;;;;;;;;;;;;;;;;
2022/06/01 13:10:13;;;;;;;;;;;;;;;;;;;;;
2022/06/01 13:12:59;;;;;;;6.95;3.13;;;21.60;64.40;;;;;;5071770;28;20080;-85
2022/06/01 13:16:29;;;;;;;2.75;2.53;;;21.10;63.20;;;;;;5080211;28;20043;-83
2022/06/01 13:19:01;;;;;;;5.90;3.43;;;20.90;65.10;;;;;;5063157;28;20041;-82
2022/06/01 13:21:30;;;;;;;4.07;3.65;;;20.40;64.40;;;;;;5052939;28;20021;-82
2022/06/01 13:24:03;;;;;;;5.22;3.13;;;20.00;66.40;;;;;;5079320;28;20028;-83
2022/06/01 13:26:45;;;;;;;4.13;3.35;;;19.90;67.80;;;;;;5065445;28;20033;-84
2022/06/01 13:29:43;;;;;;;4.30;3.35;;;19.70;69.10;;;;;;5082999;28;20611;-84
2022/06/01 13:32:10;;;;;;;5.13;4.05;;;19.50;69.70;;;;;;5084964;28;20051;-84
2022/06/01 13:34:54;;;;;;;4.47;4.05;;;19.10;70.80;;;;;;5081873;28;20028;-84
2022/06/01 13:37:29;;;;;;;4.72;4.20;;;18.70;72.20;;;;;;5078782;28;20114;-79
2022/06/01 13:40:05;;;;;;;4.65;3.38;;;18.50;73.10;;;;;;5070438;28;20040;-79
2022/06/01 13:42:35;;;;;;;3.50;2.13;;;18.30;71.60;;;;;;5069877;28;20024;-80
2022/06/01 13:45:04;;;;;;;1.98;1.77;;;18.00;69.90;;;;;;5068665;28;20487;-80
2022/06/01 13:47:51;;;;;;;1.60;1.50;;;17.70;70.60;;;;;;5069386;28;20465;-80
2022/06/01 13:50:28;;;;;;;1.55;1.45;;;17.50;72.40;;;;;;5067367;28;20036;-79
2022/06/01 13:52:54;;;;;;;2.38;1.73;;;17.30;71.80;;;;;;5075151;28;20089;-79
2022/06/01 13:55:28;;;;;;;4.10;1.70;;;17.30;73.50;;;;;;5067804;28;20505;-79